PWSweather.com
Personal Weather Stations
Station Observations

ChardChardGB

Lat: 50.877408, Lon: -2.94964741

Elevation: 341

Station Type: WS3083

http://www.merriott-astro.co.uk/weather/index.htm

High Low Average
Temperature 48.2°F9.0°C 44.1°F6.7°C 46.6°F8.1°C
Dew Point 42.6°F5.9°C 35.2°F1.8°C 40.5°F4.7°C
Winds 15.9 mph 25.6 kmh Calm Calm 3.0 mph E4.8 kmh E
Wind Gusts 17.4 mph28.0 kmh -- 4.0 mph6.4 kmh
Humidity 82% 10% 59%
Pressure 29.22 in989.5 mb 28.64 in969.9 mb -
Precipitation 0.00 in0.0 mm - -
Hour Temp Dew Point Humidity Winds Wind Gusts Pressure Precip Precip Rate Daily Precip Total
12:00 AM 48.2°F9.0°C 42.6°F5.9°C 10% 2.3 mph NE3.7 kmh NE 5.4 mph8.7 kmh 28.65 in970.2 mb 0.00 in0.0 mm 0.00 in0.0 mm 0.00 in0.0 mm
12:10 AM 48.2°F9.0°C 42.6°F5.9°C 10% 2.3 mph NE3.7 kmh NE 5.4 mph8.7 kmh 28.65 in970.2 mb 0.00 in0.0 mm 0.00 in0.0 mm 0.00 in0.0 mm
12:20 AM 48.2°F9.0°C 42.6°F5.9°C 10% 2.3 mph NE3.7 kmh NE 5.4 mph8.7 kmh 28.65 in970.2 mb 0.00 in0.0 mm 0.00 in0.0 mm 0.00 in0.0 mm
12:30 AM 48.2°F9.0°C 42.6°F5.9°C 10% 2.3 mph NE3.7 kmh NE 5.4 mph8.7 kmh 28.65 in970.2 mb 0.00 in0.0 mm 0.00 in0.0 mm 0.00 in0.0 mm
12:40 AM 48.2°F9.0°C 42.6°F5.9°C 10% 2.3 mph NE3.7 kmh NE 5.4 mph8.7 kmh 28.65 in970.2 mb 0.00 in0.0 mm 0.00 in0.0 mm 0.00 in0.0 mm
12:50 AM 48.2°F9.0°C 42.6°F5.9°C 10% 2.3 mph NE3.7 kmh NE 5.4 mph8.7 kmh 28.66 in970.5 mb 0.00 in0.0 mm 0.00 in0.0 mm 0.00 in0.0 mm
01:00 AM 48.2°F9.0°C 42.6°F5.9°C 10% 2.3 mph NE3.7 kmh NE 5.4 mph8.7 kmh 28.65 in970.2 mb 0.00 in0.0 mm 0.00 in0.0 mm 0.00 in0.0 mm
01:10 AM 48.2°F9.0°C 42.6°F5.9°C 10% 2.3 mph NE3.7 kmh NE 5.4 mph8.7 kmh 28.65 in970.2 mb 0.00 in0.0 mm 0.00 in0.0 mm 0.00 in0.0 mm
01:20 AM 48.2°F9.0°C 42.6°F5.9°C 10% 2.3 mph NE3.7 kmh NE 5.4 mph8.7 kmh 28.65 in970.2 mb 0.00 in0.0 mm 0.00 in0.0 mm 0.00 in0.0 mm
01:30 AM 48.2°F9.0°C 42.6°F5.9°C 10% 2.3 mph NE3.7 kmh NE 5.4 mph8.7 kmh 28.64 in969.9 mb 0.00 in0.0 mm 0.00 in0.0 mm 0.00 in0.0 mm
01:40 AM 48.2°F9.0°C 42.6°F5.9°C 10% 2.3 mph NE3.7 kmh NE 5.4 mph8.7 kmh 28.65 in970.2 mb 0.00 in0.0 mm 0.00 in0.0 mm 0.00 in0.0 mm
01:50 AM 48.2°F9.0°C 42.6°F5.9°C 10% 2.3 mph NE3.7 kmh NE 5.4 mph8.7 kmh 28.65 in970.2 mb 0.00 in0.0 mm 0.00 in0.0 mm 0.00 in0.0 mm
02:00 AM 48.2°F9.0°C 42.6°F5.9°C 10% 2.3 mph NE3.7 kmh NE 5.4 mph8.7 kmh 28.65 in970.2 mb 0.00 in0.0 mm 0.00 in0.0 mm 0.00 in0.0 mm
02:10 AM 48.2°F9.0°C 42.6°F5.9°C 10% 2.3 mph NE3.7 kmh NE 5.4 mph8.7 kmh 28.64 in969.9 mb 0.00 in0.0 mm 0.00 in0.0 mm 0.00 in0.0 mm
02:20 AM 48.2°F9.0°C 42.6°F5.9°C 10% 2.3 mph NE3.7 kmh NE 5.4 mph8.7 kmh 28.64 in969.9 mb 0.00 in0.0 mm 0.00 in0.0 mm 0.00 in0.0 mm
02:30 AM 48.2°F9.0°C 42.6°F5.9°C 10% 2.3 mph NE3.7 kmh NE 5.4 mph8.7 kmh 28.64 in969.9 mb 0.00 in0.0 mm 0.00 in0.0 mm 0.00 in0.0 mm
02:40 AM 48.2°F9.0°C 42.6°F5.9°C 10% 2.3 mph NE3.7 kmh NE 5.4 mph8.7 kmh 28.64 in969.9 mb 0.00 in0.0 mm 0.00 in0.0 mm 0.00 in0.0 mm
02:50 AM 48.2°F9.0°C 42.6°F5.9°C 10% 2.3 mph NE3.7 kmh NE 5.4 mph8.7 kmh 28.65 in970.2 mb 0.00 in0.0 mm 0.00 in0.0 mm 0.00 in0.0 mm
03:00 AM 48.2°F9.0°C 42.6°F5.9°C 10% 2.3 mph NE3.7 kmh NE 5.4 mph8.7 kmh 28.64 in969.9 mb 0.00 in0.0 mm 0.00 in0.0 mm 0.00 in0.0 mm
03:10 AM 48.2°F9.0°C 42.6°F5.9°C 10% 2.3 mph NE3.7 kmh NE 5.4 mph8.7 kmh 28.64 in969.9 mb 0.00 in0.0 mm 0.00 in0.0 mm 0.00 in0.0 mm
03:20 AM 48.2°F9.0°C 42.6°F5.9°C 10% 2.3 mph NE3.7 kmh NE 5.4 mph8.7 kmh 28.64 in969.9 mb 0.00 in0.0 mm 0.00 in0.0 mm 0.00 in0.0 mm
03:30 AM 48.2°F9.0°C 42.6°F5.9°C 10% 2.3 mph NE3.7 kmh NE 5.4 mph8.7 kmh 28.64 in969.9 mb 0.00 in0.0 mm 0.00 in0.0 mm 0.00 in0.0 mm
03:40 AM 48.2°F9.0°C 42.6°F5.9°C 10% 2.3 mph NE3.7 kmh NE 5.4 mph8.7 kmh 28.65 in970.2 mb 0.00 in0.0 mm 0.00 in0.0 mm 0.00 in0.0 mm
03:50 AM 48.2°F9.0°C 42.6°F5.9°C 10% 2.3 mph NE3.7 kmh NE 5.4 mph8.7 kmh 28.65 in970.2 mb 0.00 in0.0 mm 0.00 in0.0 mm 0.00 in0.0 mm
04:00 AM 48.2°F9.0°C 42.6°F5.9°C 10% 2.3 mph NE3.7 kmh NE 5.4 mph8.7 kmh 28.65 in970.2 mb 0.00 in0.0 mm 0.00 in0.0 mm 0.00 in0.0 mm
04:10 AM 48.2°F9.0°C 42.6°F5.9°C 10% 2.3 mph NE3.7 kmh NE 5.4 mph8.7 kmh 28.65 in970.2 mb 0.00 in0.0 mm 0.00 in0.0 mm 0.00 in0.0 mm
04:20 AM 48.2°F9.0°C 42.6°F5.9°C 10% 2.3 mph NE3.7 kmh NE 5.4 mph8.7 kmh 28.65 in970.2 mb 0.00 in0.0 mm 0.00 in0.0 mm 0.00 in0.0 mm
04:30 AM 48.2°F9.0°C 42.6°F5.9°C 10% 2.3 mph NE3.7 kmh NE 5.4 mph8.7 kmh 28.65 in970.2 mb 0.00 in0.0 mm 0.00 in0.0 mm 0.00 in0.0 mm
04:40 AM 48.2°F9.0°C 42.6°F5.9°C 10% 2.3 mph NE3.7 kmh NE 5.4 mph8.7 kmh 28.66 in970.5 mb 0.00 in0.0 mm 0.00 in0.0 mm 0.00 in0.0 mm
04:50 AM 48.2°F9.0°C 42.6°F5.9°C 10% 2.3 mph NE3.7 kmh NE 5.4 mph8.7 kmh 28.66 in970.5 mb 0.00 in0.0 mm 0.00 in0.0 mm 0.00 in0.0 mm
05:00 AM 48.2°F9.0°C 42.6°F5.9°C 10% 2.3 mph NE3.7 kmh NE 5.4 mph8.7 kmh 28.67 in970.9 mb 0.00 in0.0 mm 0.00 in0.0 mm 0.00 in0.0 mm
05:10 AM 48.2°F9.0°C 42.6°F5.9°C 10% 2.3 mph NE3.7 kmh NE 5.4 mph8.7 kmh 28.67 in970.9 mb 0.00 in0.0 mm 0.00 in0.0 mm 0.00 in0.0 mm
05:20 AM 48.2°F9.0°C 42.6°F5.9°C 10% 2.3 mph NE3.7 kmh NE 5.4 mph8.7 kmh 28.67 in970.9 mb 0.00 in0.0 mm 0.00 in0.0 mm 0.00 in0.0 mm
05:30 AM 48.2°F9.0°C 42.6°F5.9°C 10% 2.3 mph NE3.7 kmh NE 5.4 mph8.7 kmh 28.67 in970.9 mb 0.00 in0.0 mm 0.00 in0.0 mm 0.00 in0.0 mm
05:40 AM 48.2°F9.0°C 42.6°F5.9°C 10% 2.3 mph NE3.7 kmh NE 5.4 mph8.7 kmh 28.67 in970.9 mb 0.00 in0.0 mm 0.00 in0.0 mm 0.00 in0.0 mm
05:50 AM 48.2°F9.0°C 42.6°F5.9°C 10% 2.3 mph NE3.7 kmh NE 5.4 mph8.7 kmh 28.68 in971.2 mb 0.00 in0.0 mm 0.00 in0.0 mm 0.00 in0.0 mm
06:00 AM 48.2°F9.0°C 42.6°F5.9°C 10% 2.3 mph NE3.7 kmh NE 5.4 mph8.7 kmh 28.68 in971.2 mb 0.00 in0.0 mm 0.00 in0.0 mm 0.00 in0.0 mm
06:10 AM 48.2°F9.0°C 42.6°F5.9°C 10% 2.3 mph NE3.7 kmh NE 5.4 mph8.7 kmh 28.68 in971.2 mb 0.00 in0.0 mm 0.00 in0.0 mm 0.00 in0.0 mm
06:20 AM 48.2°F9.0°C 42.6°F5.9°C 10% 2.3 mph NE3.7 kmh NE 5.4 mph8.7 kmh 28.70 in971.9 mb 0.00 in0.0 mm 0.00 in0.0 mm 0.00 in0.0 mm
06:30 AM 48.2°F9.0°C 42.6°F5.9°C 10% 2.3 mph NE3.7 kmh NE 5.4 mph8.7 kmh 28.70 in971.9 mb 0.00 in0.0 mm 0.00 in0.0 mm 0.00 in0.0 mm
06:40 AM 48.2°F9.0°C 42.6°F5.9°C 10% 2.3 mph NE3.7 kmh NE 5.4 mph8.7 kmh 28.71 in972.2 mb 0.00 in0.0 mm 0.00 in0.0 mm 0.00 in0.0 mm
06:50 AM 48.2°F9.0°C 42.6°F5.9°C 10% 2.3 mph NE3.7 kmh NE 5.4 mph8.7 kmh 28.71 in972.2 mb 0.00 in0.0 mm 0.00 in0.0 mm 0.00 in0.0 mm
07:00 AM 46.4°F8.0°C 41.2°F5.1°C 82% Calm Calm -- 28.71 in972.2 mb 0.00 in0.0 mm 0.00 in0.0 mm 0.00 in0.0 mm
07:10 AM 46.4°F8.0°C 41.2°F5.1°C 82% Calm Calm -- 28.73 in972.9 mb 0.00 in0.0 mm 0.00 in0.0 mm 0.00 in0.0 mm
07:20 AM 46.4°F8.0°C 41.2°F5.1°C 82% Calm Calm -- 28.73 in972.9 mb 0.00 in0.0 mm 0.00 in0.0 mm 0.00 in0.0 mm
07:30 AM 46.4°F8.0°C 41.2°F5.1°C 82% Calm Calm -- 28.74 in973.2 mb 0.00 in0.0 mm 0.00 in0.0 mm 0.00 in0.0 mm
07:40 AM 46.4°F8.0°C 41.2°F5.1°C 82% Calm Calm -- 28.74 in973.2 mb 0.00 in0.0 mm 0.00 in0.0 mm 0.00 in0.0 mm
07:50 AM 46.4°F8.0°C 41.2°F5.1°C 82% Calm Calm -- 28.74 in973.2 mb 0.00 in0.0 mm 0.00 in0.0 mm 0.00 in0.0 mm
08:00 AM 46.4°F8.0°C 41.2°F5.1°C 82% Calm Calm -- 28.75 in973.6 mb 0.00 in0.0 mm 0.00 in0.0 mm 0.00 in0.0 mm
08:10 AM 46.4°F8.0°C 41.2°F5.1°C 82% Calm Calm -- 28.75 in973.6 mb 0.00 in0.0 mm 0.00 in0.0 mm 0.00 in0.0 mm
08:20 AM 46.4°F8.0°C 41.2°F5.1°C 82% Calm Calm -- 28.76 in973.9 mb 0.00 in0.0 mm 0.00 in0.0 mm 0.00 in0.0 mm
08:30 AM 46.4°F8.0°C 41.2°F5.1°C 82% Calm Calm -- 28.76 in973.9 mb 0.00 in0.0 mm 0.00 in0.0 mm 0.00 in0.0 mm
08:40 AM 46.4°F8.0°C 41.2°F5.1°C 82% Calm Calm -- 28.77 in974.3 mb 0.00 in0.0 mm 0.00 in0.0 mm 0.00 in0.0 mm
08:50 AM 46.4°F8.0°C 41.2°F5.1°C 82% Calm Calm -- 28.77 in974.3 mb 0.00 in0.0 mm 0.00 in0.0 mm 0.00 in0.0 mm
09:00 AM 46.4°F8.0°C 41.2°F5.1°C 82% Calm Calm -- 28.78 in974.6 mb 0.00 in0.0 mm 0.00 in0.0 mm 0.00 in0.0 mm
09:10 AM 46.4°F8.0°C 41.2°F5.1°C 82% Calm Calm -- 28.79 in974.9 mb 0.00 in0.0 mm 0.00 in0.0 mm 0.00 in0.0 mm
09:20 AM 46.4°F8.0°C 41.2°F5.1°C 82% Calm Calm -- 28.79 in974.9 mb 0.00 in0.0 mm 0.00 in0.0 mm 0.00 in0.0 mm
09:30 AM 46.4°F8.0°C 41.2°F5.1°C 82% Calm Calm -- 28.80 in975.3 mb 0.00 in0.0 mm 0.00 in0.0 mm 0.00 in0.0 mm
09:40 AM 46.4°F8.0°C 41.2°F5.1°C 82% Calm Calm -- 28.80 in975.3 mb 0.00 in0.0 mm 0.00 in0.0 mm 0.00 in0.0 mm
09:50 AM 46.4°F8.0°C 41.2°F5.1°C 82% Calm Calm -- 28.80 in975.3 mb 0.00 in0.0 mm 0.00 in0.0 mm 0.00 in0.0 mm
10:00 AM 46.4°F8.0°C 41.2°F5.1°C 82% Calm Calm -- 28.81 in975.6 mb 0.00 in0.0 mm 0.00 in0.0 mm 0.00 in0.0 mm
10:10 AM 46.4°F8.0°C 41.2°F5.1°C 82% Calm Calm -- 28.82 in976.0 mb 0.00 in0.0 mm 0.00 in0.0 mm 0.00 in0.0 mm
10:20 AM 46.4°F8.0°C 41.2°F5.1°C 82% Calm Calm -- 28.82 in976.0 mb 0.00 in0.0 mm 0.00 in0.0 mm 0.00 in0.0 mm
10:30 AM 46.4°F8.0°C 41.2°F5.1°C 82% Calm Calm -- 28.82 in976.0 mb 0.00 in0.0 mm 0.00 in0.0 mm 0.00 in0.0 mm
10:40 AM 46.4°F8.0°C 41.2°F5.1°C 82% Calm Calm -- 28.83 in976.3 mb 0.00 in0.0 mm 0.00 in0.0 mm 0.00 in0.0 mm
10:50 AM 46.4°F8.0°C 41.2°F5.1°C 82% Calm Calm -- 28.84 in976.6 mb 0.00 in0.0 mm 0.00 in0.0 mm 0.00 in0.0 mm
11:00 AM 46.4°F8.0°C 41.2°F5.1°C 82% Calm Calm -- 28.84 in976.6 mb 0.00 in0.0 mm 0.00 in0.0 mm 0.00 in0.0 mm
11:10 AM 46.4°F8.0°C 41.2°F5.1°C 82% Calm Calm -- 28.85 in977.0 mb 0.00 in0.0 mm 0.00 in0.0 mm 0.00 in0.0 mm
11:20 AM 46.4°F8.0°C 41.2°F5.1°C 82% Calm Calm -- 28.85 in977.0 mb 0.00 in0.0 mm 0.00 in0.0 mm 0.00 in0.0 mm
11:30 AM 46.4°F8.0°C 41.2°F5.1°C 82% Calm Calm -- 28.86 in977.3 mb 0.00 in0.0 mm 0.00 in0.0 mm 0.00 in0.0 mm
11:40 AM 46.4°F8.0°C 41.2°F5.1°C 82% Calm Calm -- 28.86 in977.3 mb 0.00 in0.0 mm 0.00 in0.0 mm 0.00 in0.0 mm
11:50 AM 46.4°F8.0°C 41.2°F5.1°C 82% Calm Calm -- 28.87 in977.7 mb 0.00 in0.0 mm 0.00 in0.0 mm 0.00 in0.0 mm
12:00 PM 46.4°F8.0°C 41.2°F5.1°C 82% Calm Calm -- 28.87 in977.7 mb 0.00 in0.0 mm 0.00 in0.0 mm 0.00 in0.0 mm
12:10 PM 46.4°F8.0°C 41.2°F5.1°C 82% Calm Calm -- 28.87 in977.7 mb 0.00 in0.0 mm 0.00 in0.0 mm 0.00 in0.0 mm
12:20 PM 46.4°F8.0°C 41.2°F5.1°C 82% Calm Calm -- 28.87 in977.7 mb 0.00 in0.0 mm 0.00 in0.0 mm 0.00 in0.0 mm
12:30 PM 46.4°F8.0°C 41.2°F5.1°C 82% Calm Calm -- 28.87 in977.7 mb 0.00 in0.0 mm 0.00 in0.0 mm 0.00 in0.0 mm
12:40 PM 46.4°F8.0°C 41.2°F5.1°C 82% Calm Calm -- 28.88 in978.0 mb 0.00 in0.0 mm 0.00 in0.0 mm 0.00 in0.0 mm
12:50 PM 46.4°F8.0°C 41.2°F5.1°C 82% Calm Calm -- 28.87 in977.7 mb 0.00 in0.0 mm 0.00 in0.0 mm 0.00 in0.0 mm
01:00 PM 46.4°F8.0°C 41.2°F5.1°C 82% Calm Calm -- 28.88 in978.0 mb 0.00 in0.0 mm 0.00 in0.0 mm 0.00 in0.0 mm
01:10 PM 46.4°F8.0°C 41.2°F5.1°C 82% Calm Calm -- 28.88 in978.0 mb 0.00 in0.0 mm 0.00 in0.0 mm 0.00 in0.0 mm
01:20 PM 46.4°F8.0°C 41.2°F5.1°C 82% Calm Calm -- 28.89 in978.3 mb 0.00 in0.0 mm 0.00 in0.0 mm 0.00 in0.0 mm
01:30 PM 46.4°F8.0°C 41.2°F5.1°C 82% Calm Calm -- 28.89 in978.3 mb 0.00 in0.0 mm 0.00 in0.0 mm 0.00 in0.0 mm
01:40 PM 46.4°F8.0°C 41.2°F5.1°C 82% Calm Calm -- 28.89 in978.3 mb 0.00 in0.0 mm 0.00 in0.0 mm 0.00 in0.0 mm
01:50 PM 46.4°F8.0°C 41.2°F5.1°C 82% Calm Calm -- 28.89 in978.3 mb 0.00 in0.0 mm 0.00 in0.0 mm 0.00 in0.0 mm
02:00 PM 46.4°F8.0°C 41.2°F5.1°C 82% Calm Calm -- 28.90 in978.7 mb 0.00 in0.0 mm 0.00 in0.0 mm 0.00 in0.0 mm
02:10 PM 46.4°F8.0°C 41.2°F5.1°C 82% Calm Calm -- 28.90 in978.7 mb 0.00 in0.0 mm 0.00 in0.0 mm 0.00 in0.0 mm
02:20 PM 46.4°F8.0°C 41.2°F5.1°C 82% Calm Calm -- 28.91 in979.0 mb 0.00 in0.0 mm 0.00 in0.0 mm 0.00 in0.0 mm
02:30 PM 46.4°F8.0°C 41.2°F5.1°C 82% Calm Calm -- 28.92 in979.3 mb 0.00 in0.0 mm 0.00 in0.0 mm 0.00 in0.0 mm
02:40 PM 46.4°F8.0°C 41.2°F5.1°C 82% Calm Calm -- 28.92 in979.3 mb 0.00 in0.0 mm 0.00 in0.0 mm 0.00 in0.0 mm
02:50 PM 46.4°F8.0°C 41.2°F5.1°C 82% Calm Calm -- 28.93 in979.7 mb 0.00 in0.0 mm 0.00 in0.0 mm 0.00 in0.0 mm
03:00 PM 46.4°F8.0°C 41.2°F5.1°C 82% Calm Calm -- 28.93 in979.7 mb 0.00 in0.0 mm 0.00 in0.0 mm 0.00 in0.0 mm
03:10 PM 46.4°F8.0°C 41.2°F5.1°C 82% Calm Calm -- 28.94 in980.0 mb 0.00 in0.0 mm 0.00 in0.0 mm 0.00 in0.0 mm
03:20 PM 46.4°F8.0°C 41.2°F5.1°C 82% Calm Calm -- 28.94 in980.0 mb 0.00 in0.0 mm 0.00 in0.0 mm 0.00 in0.0 mm
03:30 PM 46.4°F8.0°C 41.2°F5.1°C 82% Calm Calm -- 28.94 in980.0 mb 0.00 in0.0 mm 0.00 in0.0 mm 0.00 in0.0 mm
03:40 PM 46.4°F8.0°C 41.2°F5.1°C 82% Calm Calm -- 28.95 in980.4 mb 0.00 in0.0 mm 0.00 in0.0 mm 0.00 in0.0 mm
03:50 PM 46.4°F8.0°C 41.2°F5.1°C 82% Calm Calm -- 28.95 in980.4 mb 0.00 in0.0 mm 0.00 in0.0 mm 0.00 in0.0 mm
04:00 PM 46.4°F8.0°C 41.2°F5.1°C 82% Calm Calm -- 28.95 in980.4 mb 0.00 in0.0 mm 0.00 in0.0 mm 0.00 in0.0 mm
04:10 PM 46.4°F8.0°C 41.2°F5.1°C 82% Calm Calm -- 28.95 in980.4 mb 0.00 in0.0 mm 0.00 in0.0 mm 0.00 in0.0 mm
04:20 PM 46.4°F8.0°C 41.2°F5.1°C 82% Calm Calm -- 28.96 in980.7 mb 0.00 in0.0 mm 0.00 in0.0 mm 0.00 in0.0 mm
04:30 PM 46.4°F8.0°C 41.2°F5.1°C 82% Calm Calm -- 28.96 in980.7 mb 0.00 in0.0 mm 0.00 in0.0 mm 0.00 in0.0 mm
04:40 PM 46.4°F8.0°C 41.2°F5.1°C 82% Calm Calm -- 28.97 in981.0 mb 0.00 in0.0 mm 0.00 in0.0 mm 0.00 in0.0 mm
04:50 PM 46.4°F8.0°C 41.2°F5.1°C 82% Calm Calm -- 28.98 in981.4 mb 0.00 in0.0 mm 0.00 in0.0 mm 0.00 in0.0 mm
05:00 PM 46.4°F8.0°C 41.2°F5.1°C 82% Calm Calm -- 28.97 in981.0 mb 0.00 in0.0 mm 0.00 in0.0 mm 0.00 in0.0 mm
05:10 PM 46.4°F8.0°C 41.2°F5.1°C 82% Calm Calm -- 28.99 in981.7 mb 0.00 in0.0 mm 0.00 in0.0 mm 0.00 in0.0 mm
05:20 PM 46.4°F8.0°C 41.2°F5.1°C 82% Calm Calm -- 29.00 in982.1 mb 0.00 in0.0 mm 0.00 in0.0 mm 0.00 in0.0 mm
05:30 PM 46.4°F8.0°C 41.2°F5.1°C 82% Calm Calm -- 29.00 in982.1 mb 0.00 in0.0 mm 0.00 in0.0 mm 0.00 in0.0 mm
05:40 PM 46.4°F8.0°C 41.2°F5.1°C 82% Calm Calm -- 29.01 in982.4 mb 0.00 in0.0 mm 0.00 in0.0 mm 0.00 in0.0 mm
05:50 PM 46.4°F8.0°C 41.2°F5.1°C 82% Calm Calm -- 29.01 in982.4 mb 0.00 in0.0 mm 0.00 in0.0 mm 0.00 in0.0 mm
06:00 PM 46.4°F8.0°C 41.2°F5.1°C 82% Calm Calm -- 29.02 in982.7 mb 0.00 in0.0 mm 0.00 in0.0 mm 0.00 in0.0 mm
06:10 PM 46.4°F8.0°C 41.2°F5.1°C 82% Calm Calm -- 29.02 in982.7 mb 0.00 in0.0 mm 0.00 in0.0 mm 0.00 in0.0 mm
06:20 PM 46.4°F8.0°C 41.2°F5.1°C 82% Calm Calm -- 29.03 in983.1 mb 0.00 in0.0 mm 0.00 in0.0 mm 0.00 in0.0 mm
06:30 PM 46.4°F8.0°C 41.2°F5.1°C 82% Calm Calm -- 29.04 in983.4 mb 0.00 in0.0 mm 0.00 in0.0 mm 0.00 in0.0 mm
06:40 PM 46.6°F8.1°C 35.8°F2.1°C 66% 15.9 mph N25.6 kmh N 15.9 mph25.6 kmh 29.05 in983.7 mb 0.00 in0.0 mm 0.00 in0.0 mm 0.00 in0.0 mm
06:50 PM 46.6°F8.1°C 35.8°F2.1°C 66% 10.0 mph NW16.1 kmh NW 15.9 mph25.6 kmh 29.06 in984.1 mb 0.00 in0.0 mm 0.00 in0.0 mm 0.00 in0.0 mm
07:00 PM 46.4°F8.0°C 35.7°F2.1°C 66% 11.1 mph NW17.9 kmh NW 13.6 mph21.9 kmh 29.06 in984.1 mb 0.00 in0.0 mm 0.00 in0.0 mm 0.00 in0.0 mm
07:10 PM 46.4°F8.0°C 35.7°F2.1°C 66% 10.1 mph NW16.3 kmh NW 14.5 mph23.3 kmh 29.07 in984.4 mb 0.00 in0.0 mm 0.00 in0.0 mm 0.00 in0.0 mm
07:20 PM 46.0°F7.8°C 35.3°F1.8°C 66% 10.9 mph NNW17.5 kmh NNW 17.4 mph28.0 kmh 29.08 in984.8 mb 0.00 in0.0 mm 0.00 in0.0 mm 0.00 in0.0 mm
07:30 PM 45.9°F7.7°C 35.2°F1.8°C 66% 9.9 mph NW15.9 kmh NW 15.9 mph25.6 kmh 29.10 in985.4 mb 0.00 in0.0 mm 0.00 in0.0 mm 0.00 in0.0 mm
07:40 PM 45.9°F7.7°C 35.2°F1.8°C 66% 10.8 mph NW17.4 kmh NW 15.2 mph24.5 kmh 29.11 in985.8 mb 0.00 in0.0 mm 0.00 in0.0 mm 0.00 in0.0 mm
07:50 PM 45.5°F7.5°C 35.2°F1.8°C 67% 7.8 mph NNW12.6 kmh NNW 11.4 mph18.3 kmh 29.11 in985.8 mb 0.00 in0.0 mm 0.00 in0.0 mm 0.00 in0.0 mm
08:00 PM 45.3°F7.4°C 36.5°F2.5°C 71% 6.5 mph NW10.5 kmh NW 7.6 mph12.2 kmh 29.12 in986.1 mb 0.00 in0.0 mm 0.00 in0.0 mm 0.00 in0.0 mm
08:10 PM 45.1°F7.3°C 36.7°F2.6°C 72% 7.2 mph N11.6 kmh N 13.0 mph20.9 kmh 29.13 in986.5 mb 0.00 in0.0 mm 0.00 in0.0 mm 0.00 in0.0 mm
08:20 PM 45.1°F7.3°C 36.7°F2.6°C 72% 8.5 mph NW13.7 kmh NW 15.2 mph24.5 kmh 29.13 in986.5 mb 0.00 in0.0 mm 0.00 in0.0 mm 0.00 in0.0 mm
08:30 PM 45.1°F7.3°C 36.7°F2.6°C 72% 7.9 mph NW12.7 kmh NW 10.7 mph17.2 kmh 29.13 in986.5 mb 0.00 in0.0 mm 0.00 in0.0 mm 0.00 in0.0 mm
08:40 PM 45.1°F7.3°C 36.7°F2.6°C 72% 8.8 mph NW14.2 kmh NW 11.4 mph18.3 kmh 29.14 in986.8 mb 0.00 in0.0 mm 0.00 in0.0 mm 0.00 in0.0 mm
08:50 PM 45.1°F7.3°C 36.7°F2.6°C 72% 10.4 mph NW16.7 kmh NW 13.0 mph20.9 kmh 29.15 in987.1 mb 0.00 in0.0 mm 0.00 in0.0 mm 0.00 in0.0 mm
09:00 PM 45.0°F7.2°C 36.5°F2.5°C 72% 10.7 mph NW17.2 kmh NW 15.2 mph24.5 kmh 29.16 in987.5 mb 0.00 in0.0 mm 0.00 in0.0 mm 0.00 in0.0 mm
09:10 PM 44.8°F7.1°C 36.3°F2.4°C 72% 7.2 mph NW11.6 kmh NW 9.8 mph15.8 kmh 29.16 in987.5 mb 0.00 in0.0 mm 0.00 in0.0 mm 0.00 in0.0 mm
09:20 PM 44.6°F7.0°C 36.1°F2.3°C 72% 8.0 mph NW12.9 kmh NW 12.1 mph19.5 kmh 29.16 in987.5 mb 0.00 in0.0 mm 0.00 in0.0 mm 0.00 in0.0 mm
09:30 PM 44.4°F6.9°C 36.0°F2.2°C 72% 8.1 mph NW13.0 kmh NW 12.1 mph19.5 kmh 29.17 in987.8 mb 0.00 in0.0 mm 0.00 in0.0 mm 0.00 in0.0 mm
09:40 PM 44.4°F6.9°C 36.0°F2.2°C 72% 8.3 mph NW13.4 kmh NW 9.8 mph15.8 kmh 29.17 in987.8 mb 0.00 in0.0 mm 0.00 in0.0 mm 0.00 in0.0 mm
09:50 PM 44.6°F7.0°C 36.5°F2.5°C 73% 7.5 mph NNW12.1 kmh NNW 9.8 mph15.8 kmh 29.18 in988.1 mb 0.00 in0.0 mm 0.00 in0.0 mm 0.00 in0.0 mm
10:00 PM 44.6°F7.0°C 36.1°F2.3°C 72% 8.3 mph NW13.4 kmh NW 10.7 mph17.2 kmh 29.18 in988.1 mb 0.00 in0.0 mm 0.00 in0.0 mm 0.00 in0.0 mm
10:10 PM 44.8°F7.1°C 36.3°F2.4°C 72% 9.2 mph NW14.8 kmh NW 11.4 mph18.3 kmh 29.18 in988.1 mb 0.00 in0.0 mm 0.00 in0.0 mm 0.00 in0.0 mm
10:20 PM 44.6°F7.0°C 36.1°F2.3°C 72% 8.9 mph NW14.3 kmh NW 12.1 mph19.5 kmh 29.19 in988.5 mb 0.00 in0.0 mm 0.00 in0.0 mm 0.00 in0.0 mm
10:30 PM 44.4°F6.9°C 36.0°F2.2°C 72% 7.8 mph NW12.6 kmh NW 10.7 mph17.2 kmh 29.19 in988.5 mb 0.00 in0.0 mm 0.00 in0.0 mm 0.00 in0.0 mm
10:40 PM 44.2°F6.8°C 36.1°F2.3°C 73% 8.9 mph NW14.3 kmh NW 13.6 mph21.9 kmh 29.19 in988.5 mb 0.00 in0.0 mm 0.00 in0.0 mm 0.00 in0.0 mm
10:50 PM 44.4°F6.9°C 36.7°F2.6°C 74% 10.0 mph NW16.1 kmh NW 13.6 mph21.9 kmh 29.20 in988.8 mb 0.00 in0.0 mm 0.00 in0.0 mm 0.00 in0.0 mm
11:00 PM 44.2°F6.8°C 36.5°F2.5°C 74% 7.3 mph NW11.7 kmh NW 13.0 mph20.9 kmh 29.21 in989.2 mb 0.00 in0.0 mm 0.00 in0.0 mm 0.00 in0.0 mm
11:10 PM 44.2°F6.8°C 36.8°F2.7°C 75% 7.3 mph NW11.7 kmh NW 9.2 mph14.8 kmh 29.21 in989.2 mb 0.00 in0.0 mm 0.00 in0.0 mm 0.00 in0.0 mm
11:20 PM 44.2°F6.8°C 37.2°F2.9°C 76% 7.1 mph WNW11.4 kmh WNW 9.8 mph15.8 kmh 29.21 in989.2 mb 0.00 in0.0 mm 0.00 in0.0 mm 0.00 in0.0 mm
11:30 PM 44.1°F6.7°C 37.3°F2.9°C 77% 7.6 mph NNW12.2 kmh NNW 14.5 mph23.3 kmh 29.21 in989.2 mb 0.00 in0.0 mm 0.00 in0.0 mm 0.00 in0.0 mm
11:40 PM 44.4°F6.9°C 38.0°F3.3°C 78% 9.9 mph NW15.9 kmh NW 15.2 mph24.5 kmh 29.22 in989.5 mb 0.00 in0.0 mm 0.00 in0.0 mm 0.00 in0.0 mm
11:50 PM 44.2°F6.8°C 37.8°F3.2°C 78% 6.7 mph NW10.8 kmh NW 9.8 mph15.8 kmh 29.22 in989.5 mb 0.00 in0.0 mm 0.00 in0.0 mm 0.00 in0.0 mm